Latest Weather Observations for Cerberus

IDV60901

Issued at 9:31 am EDT Wednesday 24 October 2018 (issued every 10 minutes, with the page automatically refreshed every 10 minutes)

About weather observations | Map of Melbourne area stations | Latest observations for Melbourne area | Other Formats
Station Details ID: 086361 Name: CERBERUS Lat: -38.36 Lon: 145.18 Height: 12.69 m
Data from the previous 72 hours. | See also: Recent months at Cerberus
Date/Time
EDT
Temp
°C
App
Temp
°C
Dew
Point
°C
Rel
Hum
%
Delta-T
°C
Wind Press
QNH
hPa
Press
MSL
hPa
Rain since
9am
mm
Dir  Spd
km/h
Gust
km/h
Spd
kts
Gust
kts
24/09:30am 12.6 9.2 3.8 55 3.9 S 11 17 6 9 1024.3 1024.3 0.0
24/09:00am 13.2 9.7 3.3 51 4.4 SSE 11 19 6 10 1023.9 1023.9 0.0
24/08:30am 13.4 10.0 4.0 53 4.3 S 11 20 6 11 1023.6 1023.6 0.0
24/08:00am 11.9 8.5 3.9 58 3.6 SSE 11 19 6 10 1023.3 1023.3 0.0
24/07:30am 11.9 8.5 4.2 59 3.5 SSE 11 15 6 8 1023.1 1023.1 0.0
24/07:00am 10.8 8.0 3.4 60 3.2 S 7 13 4 7 1022.8 1022.8 0.0
24/06:30am 10.9 7.7 3.2 59 3.4 SSW 9 13 5 7 1022.4 1022.4 0.0
24/06:00am 11.1 6.7 4.6 64 2.9 SSW 17 28 9 15 1022.0 1022.0 0.0
24/05:30am 11.2 7.3 5.3 67 2.7 S 15 22 8 12 1021.6 1021.6 0.0
24/05:00am 9.5 7.1 4.3 70 2.3 SSW 6 6 3 3 1021.4 1021.4 0.0
24/04:30am 9.7 7.5 3.4 65 2.7 SSW 4 6 2 3 1021.2 1021.2 0.0
24/04:00am 10.3 7.1 3.3 62 3.0 SSW 9 17 5 9 1021.0 1021.0 0.0
24/03:30am 10.1 7.4 3.8 65 2.8 SSW 7 11 4 6 1021.1 1021.1 0.0
24/03:00am 11.0 7.4 5.1 67 2.7 SSW 13 19 7 10 1021.0 1021.0 0.0
24/02:30am 11.2 7.5 4.2 62 3.1 SSW 13 20 7 11 1020.9 1020.9 0.0
24/02:00am 11.6 7.3 3.4 57 3.6 SW 15 22 8 12 1021.1 1021.1 0.0
24/01:30am 11.5 7.2 3.5 58 3.5 SW 15 24 8 13 1021.2 1021.2 0.0
24/01:00am 10.6 8.2 5.4 70 2.4 WSW 7 17 4 9 1021.2 1021.2 0.0
24/12:30am 10.1 7.6 4.9 70 2.3 W 7 11 4 6 1021.2 1021.2 0.0
24/12:00am 9.8 6.9 4.4 69 2.4 W 9 13 5 7 1021.3 1021.3 0.0
 
Date/Time
EDT
Temp
°C
App
Temp
°C
Dew
Point
°C
Rel
Hum
%
Delta-T
°C
Wind Press
QNH
hPa
Press
MSL
hPa
Rain since
9am
mm
Dir  Spd
km/h
Gust
km/h
Spd
kts
Gust
kts
23/11:30pm 9.7 7.1 4.3 69 2.4 W 7 11 4 6 1021.1 1021.1 0.0
23/11:00pm 9.9 7.4 4.5 69 2.4 WSW 7 11 4 6 1020.8 1020.8 0.0
23/10:30pm 10.2 7.3 4.8 69 2.4 W 9 13 5 7 1020.8 1020.8 0.0
23/10:00pm 10.7 7.4 4.8 67 2.7 WSW 11 17 6 9 1020.6 1020.6 0.0
23/09:30pm 11.6 7.2 4.8 63 3.1 WSW 17 26 9 14 1020.3 1020.3 0.0
23/09:00pm 12.3 7.2 5.9 65 3.0 SW 22 37 12 20 1020.1 1020.1 0.0
23/08:30pm 12.5 7.3 5.4 62 3.3 SW 22 33 12 18 1019.4 1019.4 0.0
23/08:00pm 12.8 7.5 4.8 58 3.7 SW 22 35 12 19 1018.8 1018.8 0.0
23/07:30pm 12.9 8.0 5.1 59 3.6 SW 20 32 11 17 1018.6 1018.6 0.0
23/07:00pm 13.1 8.0 6.2 63 3.3 SW 22 32 12 17 1017.9 1017.9 0.0
23/06:30pm 13.7 8.6 6.1 60 3.6 SW 22 35 12 19 1017.4 1017.4 0.0
23/06:00pm 13.7 8.7 6.3 61 3.5 SW 22 35 12 19 1016.7 1016.6 0.0
23/05:30pm 14.1 9.8 7.2 63 3.4 SW 19 33 10 18 1016.3 1016.2 0.0
23/05:00pm 14.1 9.8 7.9 66 3.1 SSW 20 30 11 16 1016.0 1015.9 0.0
23/04:30pm 14.2 9.3 6.8 61 3.6 SW 22 35 12 19 1015.7 1015.6 0.0
23/04:00pm 15.2 9.8 8.2 63 3.5 SW 26 41 14 22 1015.2 1015.1 0.0
23/03:30pm 16.7 12.4 9.4 62 3.8 SW 22 41 12 22 1014.8 1014.7 0.0
23/03:00pm 15.9 11.0 8.4 61 3.8 SSW 24 39 13 21 1014.5 1014.4 0.0
23/02:30pm 16.2 11.6 8.2 59 4.1 SSW 22 37 12 20 1014.6 1014.5 0.0
23/02:00pm 15.9 12.1 8.9 63 3.6 SW 19 28 10 15 1014.6 1014.5 0.0
23/01:30pm 15.9 11.0 8.4 61 3.8 SW 24 37 13 20 1014.3 1014.2 0.0
23/01:00pm 16.3 11.6 9.3 63 3.6 SSW 24 37 13 20 1014.1 1014.0 0.0
23/12:30pm 16.0 11.7 9.4 65 3.4 SSW 22 30 12 16 1014.0 1013.9 0.0
23/12:00pm 15.5 11.7 9.2 66 3.2 SW 19 26 10 14 1014.0 1013.9 0.0
23/11:30am 16.2 12.7 10.1 67 3.2 SW 19 28 10 15 1014.0 1013.9 0.0
23/11:00am 15.0 11.7 9.4 69 2.9 SW 17 26 9 14 1013.9 1013.8 0.0
23/10:30am 14.4 11.3 9.0 70 2.7 SW 15 24 8 13 1013.7 1013.6 0.0
23/10:00am 14.6 12.2 10.2 75 2.3 SW 13 24 7 13 1013.2 1013.2 0.0
23/09:30am 14.6 13.1 11.9 84 1.5 WSW 11 17 6 9 1012.9 1012.9 0.0
23/09:00am 14.4 13.8 12.3 87 1.1 W 7 9 4 5 1013.1 1013.1 0.0
23/08:30am 14.1 14.0 12.1 88 1.1 NNE 4 6 2 3 1011.9 1011.9 0.0
23/08:00am 13.5 13.7 11.7 89 1.0 SW 2 7 1 4 1012.3 1012.3 0.0
23/07:30am 13.1 12.8 11.5 90 0.8 SSW 4 6 2 3 1011.5 1011.5 0.0
23/07:00am 12.4 11.6 11.0 91 0.7 W 6 9 3 5 1011.8 1011.8 0.0
23/06:30am 11.4 10.3 10.0 91 0.7 SW 6 11 3 6 1011.4 1011.4 0.0
23/06:00am 9.0 7.3 7.5 90 0.7 W 6 7 3 4 1011.2 1011.2 0.0
23/05:30am 9.4 8.5 7.8 90 0.8 W 2 6 1 3 1010.3 1010.3 0.0
23/05:00am 9.1 8.1 7.4 89 0.8 W 2 4 1 2 1010.4 1010.4 0.0
23/04:30am 9.3 8.0 7.6 89 0.8 NNE 4 7 2 4 1010.3 1010.3 0.0
23/04:00am 8.5 7.3 6.5 87 0.9 W 2 4 1 2 1010.7 1010.7 0.0
23/03:30am 10.2 9.8 8.1 87 1.0 CALM 0 0 0 0 1011.4 1011.4 0.0
23/03:00am 11.0 10.4 8.9 87 1.0 W 2 4 1 2 1011.9 1011.9 0.0
23/02:30am 10.7 9.6 8.3 85 1.2 WNW 4 7 2 4 1011.6 1011.6 0.0
23/02:00am 12.4 11.3 10.1 86 1.2 N 6 9 3 5 1011.3 1011.3 0.0
23/01:30am 13.2 13.0 10.4 83 1.5 SW 2 6 1 3 1010.8 1010.8 0.0
23/01:00am 14.0 12.9 10.8 81 1.7 SW 7 15 4 8 1011.2 1011.2 0.0
23/12:30am 14.6 12.3 10.6 77 2.1 SW 13 20 7 11 1011.5 1011.5 0.0
23/12:00am 14.9 11.4 10.3 74 2.4 SW 19 32 10 17 1011.9 1011.9 0.0
 
Date/Time
EDT
Temp
°C
App
Temp
°C
Dew
Point
°C
Rel
Hum
%
Delta-T
°C
Wind Press
QNH
hPa
Press
MSL
hPa
Rain since
9am
mm
Dir  Spd
km/h
Gust
km/h
Spd
kts
Gust
kts
22/11:30pm 15.1 12.7 10.1 72 2.6 SW 13 19 7 10 1011.3 1011.3 0.0
22/11:00pm 15.6 12.5 10.2 70 2.8 SW 17 28 9 15 1011.3 1011.3 0.0
22/10:30pm 16.3 12.1 9.9 66 3.4 SW 22 37 12 20 1010.7 1010.7 0.0
22/10:00pm 18.1 15.0 8.9 55 4.8 SW 15 30 8 16 1010.4 1010.4 0.0
22/09:30pm 19.5 17.8 8.2 48 5.8 NNE 7 13 4 7 1009.1 1009.1 0.0
22/09:00pm 20.5 18.1 7.2 42 6.8 NNE 9 15 5 8 1009.1 1009.1 0.0
22/08:30pm 22.0 18.5 5.4 34 8.3 NNE 13 22 7 12 1009.0 1009.0 0.0
22/08:00pm 22.6 19.2 6.0 34 8.4 NNE 13 24 7 13 1008.9 1008.9 0.0
22/07:30pm 23.5 19.7 5.9 32 8.9 NNE 15 26 8 14 1008.9 1008.9 0.0
22/07:00pm 24.6 21.3 6.4 31 9.4 NNE 13 24 7 13 1008.8 1008.8 0.0
22/06:30pm 25.6 21.7 5.2 27 10.4 N 15 24 8 13 1008.9 1008.9 0.0
22/06:00pm 26.1 22.3 5.7 27 10.5 NNW 15 28 8 15 1008.9 1008.9 0.0
22/05:30pm 26.3 22.4 5.3 26 10.7 N 15 32 8 17 1008.9 1008.9 0.0
22/05:00pm 26.1 21.9 5.7 27 10.5 N 17 30 9 16 1009.2 1009.2 0.0
22/04:30pm 25.8 21.0 5.4 27 10.4 NNW 20 41 11 22 1009.3 1009.3 0.0
22/04:00pm 26.6 22.3 7.1 29 10.3 N 19 33 10 18 1009.4 1009.4 0.0
22/03:30pm 26.1 21.5 5.7 27 10.5 N 19 35 10 19 1009.7 1009.7 0.0
22/03:00pm 25.1 20.8 5.3 28 10.1 N 17 32 9 17 1010.1 1010.1 0.0
22/02:30pm 25.6 21.5 6.3 29 10.0 NNW 17 30 9 16 1010.9 1010.9 0.0
22/02:00pm 25.1 20.2 6.8 31 9.6 NW 22 35 12 19 1011.3 1011.3 0.0
22/01:30pm 24.4 19.9 7.1 33 9.0 NNW 20 39 11 21 1011.4 1011.4 0.0
22/01:00pm 23.6 18.1 6.0 32 9.0 N 24 46 13 25 1011.4 1011.4 0.0
22/12:30pm 22.8 17.3 5.7 33 8.6 NNW 24 39 13 21 1011.8 1011.8 0.0
22/12:00pm 22.1 16.5 7.1 38 7.7 NNW 26 48 14 26 1012.0 1012.0 0.0
22/11:30am 22.1 17.4 7.9 40 7.4 NNW 22 44 12 24 1012.4 1012.4 0.0
22/11:00am 20.2 15.8 7.2 43 6.6 NNW 20 37 11 20 1012.7 1012.7 0.0
22/10:30am 19.8 15.4 7.2 44 6.4 N 20 35 11 19 1013.0 1013.0 0.0
22/10:00am 17.1 15.8 11.2 68 3.2 NE 9 15 5 8 1013.3 1013.3 0.0
22/09:30am 15.4 13.5 10.4 72 2.6 NNE 11 17 6 9 1013.4 1013.4 0.0
22/09:00am 13.6 12.2 11.0 84 1.4 NE 9 17 5 9 1014.0 1013.9 0.0
22/08:30am 11.9 10.3 10.1 89 0.9 NNE 9 17 5 9 1014.1 1014.0 0.0
22/08:00am 11.1 9.8 9.9 92 0.6 NNE 7 13 4 7 1014.3 1014.2 0.0
22/07:30am 10.2 8.8 9.0 92 0.6 NNE 6 11 3 6 1014.3 1014.2 0.0
22/07:00am 8.7 7.4 7.5 92 0.6 NE 4 7 2 4 1014.2 1014.1 0.0
22/06:30am 7.9 6.8 6.7 92 0.6 NE 2 6 1 3 1014.1 1014.0 0.0
22/06:00am 8.1 6.6 6.9 92 0.6 NE 4 6 2 3 1014.2 1014.1 0.0
22/05:30am 7.7 6.1 6.5 92 0.5 NE 4 6 2 3 1014.3 1014.2 0.0
22/05:00am 7.9 6.3 6.5 91 0.6 NE 4 6 2 3 1014.3 1014.2 0.0
22/04:30am 8.2 6.7 6.8 91 0.6 ESE 4 4 2 2 1014.4 1014.3 0.0
22/04:00am 8.1 7.0 6.7 91 0.6 ESE 2 4 1 2 1014.5 1014.4 0.0
22/03:30am 7.8 6.6 6.4 91 0.6 S 2 4 1 2 1014.7 1014.6 0.0
22/03:00am 7.1 5.7 5.7 91 0.6 S 2 2 1 1 1014.8 1014.7 0.0
22/02:30am 7.3 6.0 5.8 90 0.7 S 2 2 1 1 1015.0 1014.9 0.0
22/02:00am 7.8 6.2 6.3 90 0.7 S 4 4 2 2 1015.2 1015.1 0.0
22/01:30am 7.7 6.4 6.2 90 0.7 S 2 4 1 2 1015.7 1015.6 0.0
22/01:00am 7.6 6.7 5.9 89 0.8 CALM 0 0 0 0 1016.2 1016.1 0.0
22/12:30am 8.3 7.1 6.6 89 0.8 S 2 2 1 1 1016.5 1016.4 0.0
22/12:00am 8.6 7.2 7.1 90 0.7 S 4 4 2 2 1016.6 1016.5 0.0
 
Date/Time
EDT
Temp
°C
App
Temp
°C
Dew
Point
°C
Rel
Hum
%
Delta-T
°C
Wind Press
QNH
hPa
Press
MSL
hPa
Rain since
9am
mm
Dir  Spd
km/h
Gust
km/h
Spd
kts
Gust
kts
21/11:30pm 8.8 8.1 6.9 88 0.9 CALM 0 0 0 0 1016.9 1016.8 0.0
21/11:00pm 9.3 8.7 7.4 88 0.9 CALM 0 0 0 0 1017.3 1017.2 0.0
21/10:30pm 9.5 8.9 7.4 87 1.0 CALM 0 0 0 0 1017.5 1017.5 0.0
21/10:00pm 10.5 9.7 8.3 86 1.1 S 2 2 1 1 1017.5 1017.5 0.0
21/09:30pm 11.3 10.7 8.9 85 1.2 S 2 4 1 2 1017.5 1017.5 0.0
21/09:00pm 11.4 10.8 8.8 84 1.3 S 2 4 1 2 1017.5 1017.5 0.0
21/08:30pm 12.1 11.2 9.3 83 1.4 S 4 4 2 2 1017.4 1017.4 0.0
21/08:00pm 12.7 11.9 9.5 81 1.6 S 4 6 2 3 1017.3 1017.2 0.0
21/07:30pm 13.6 12.3 10.0 79 1.9 SSW 7 11 4 6 1017.3 1017.2 0.0
21/07:00pm 14.3 12.7 10.3 77 2.1 SSW 9 13 5 7 1017.2 1017.1 0.0
21/06:30pm 14.8 12.4 10.2 74 2.4 SSW 13 19 7 10 1017.1 1017.0 0.0
21/06:00pm 15.4 13.1 9.1 66 3.2 SSW 11 19 6 10 1017.2 1017.1 0.0
21/05:30pm 15.9 13.2 9.1 64 3.5 SSW 13 20 7 11 1017.1 1017.0 0.0
21/05:00pm 16.4 13.9 8.4 59 4.1 S 11 19 6 10 1017.2 1017.1 0.0
21/04:30pm 17.1 15.3 9.5 61 4.0 S 9 17 5 9 1017.4 1017.4 0.0
21/04:00pm 16.0 13.1 8.0 59 4.0 S 13 17 7 9 1017.6 1017.6 0.0
21/03:30pm 17.6 15.4 9.5 59 4.2 SSW 11 17 6 9 1017.8 1017.8 0.0
21/03:00pm 17.5 16.2 9.2 58 4.3 SW 6 11 3 6 1018.0 1018.0 0.0
21/02:30pm 16.4 14.6 9.6 64 3.5 SW 9 15 5 8 1018.6 1018.6 0.0
21/02:00pm 15.9 14.7 8.2 60 3.9 SW 4 7 2 4 1019.0 1019.0 0.0
21/01:30pm 16.0 13.6 8.5 61 3.8 SSW 11 17 6 9 1019.2 1019.2 0.0
21/01:00pm 16.0 14.6 9.0 63 3.6 WSW 6 11 3 6 1019.4 1019.4 0.0
21/12:30pm 15.7 13.2 8.4 62 3.7 SW 11 15 6 8 1019.5 1019.5 0.0
21/12:00pm 15.5 14.9 9.0 65 3.3 SW 2 6 1 3 1019.8 1019.8 0.0
21/11:30am 14.6 13.1 9.0 69 2.9 WSW 7 11 4 6 1020.0 1020.0 0.0
21/11:00am 15.2 13.1 8.4 64 3.4 WSW 9 13 5 7 1020.0 1020.0 0.0
21/10:30am 14.9 12.5 8.8 67 3.1 WSW 11 15 6 8 1020.0 1020.0 0.0
21/10:00am 14.8 12.2 9.2 69 2.9 SSW 13 19 7 10 1019.9 1019.9 0.0

Latest Capital City Observations: Canberra | Sydney | Melbourne | Brisbane | Adelaide | Perth | Hobart | Darwin

Other Formats:

Comma delimited format used in spreadsheet applications
http://www.bom.gov.au/fwo/IDV60901/IDV60901.94898.axf

JavaScript Object Notation format (JSON) in row-major order
http://www.bom.gov.au/fwo/IDV60901/IDV60901.94898.json